This is the latest recevied weather packets stored in our database for station/object N6HGA-1. If no packets are shown the sender has not sent any weather packets the latest 1 day(s).
| Time | Temp. | Humidity | Pressure | Rain* | Wind** | Luminosity | Snow |
|---|---|---|---|---|---|---|---|
| 1778086682 | 18.33° C | 65% | - | 0 mm | - | - | - |
| 1778086380 | 17.78° C | 64% | - | 0 mm | - | - | - |
| 1778086079 | 17.78° C | 62% | - | 0 mm | - | - | - |
| 1778085779 | 17.22° C | 63% | - | 0 mm | - | - | - |
| 1778084874 | 17.22° C | 63% | - | 0 mm | - | - | - |
| 1778083971 | 16.67° C | 65% | - | 0 mm | - | - | - |
| 1778083366 | 17.22° C | 64% | - | 0 mm | - | - | - |
| 1778082761 | 17.22° C | 64% | - | 0 mm | - | - | - |
| 1778082459 | 17.22° C | 63% | - | 0 mm | - | - | - |
| 1778080953 | 15.56° C | 68% | - | 0 mm | - | - | - |
| 1778080652 | 15° C | 69% | - | 0 mm | - | - | - |
| 1778080352 | 15° C | 70% | - | 0 mm | - | - | - |
| 1778080049 | 14.44° C | 69% | - | 0 mm | - | - | - |
| 1778078846 | 14.44° C | 72% | - | 0 mm | - | - | - |
| 1778077339 | 12.22° C | 80% | - | 0 mm | - | - | - |
| 1778075537 | 11.11° C | 85% | - | 0 mm | - | - | - |
| 1778075235 | 10.56° C | 86% | - | 0 mm | - | - | - |
| 1778074334 | 10.56° C | 88% | - | 0 mm | - | - | - |
| 1778073425 | 9.44° C | 89% | - | 0 mm | - | - | - |
| 1778073125 | 8.89° C | 88% | - | 0 mm | - | - | - |
| 1778072524 | 8.89° C | 87% | - | 0 mm | - | - | - |
| 1778071621 | 9.44° C | 88% | - | 0 mm | - | - | - |
| 1778070716 | 9.44° C | 87% | - | 0 mm | - | - | - |
| 1778069815 | 9.44° C | 86% | - | 0 mm | - | - | - |
| 1778068311 | 10° C | 84% | - | 0 mm | - | - | - |
* Rain since midnight (hover to see other rain measurements)
** Current wind speed in m/s (hover to see current wind gust speed)